Akebono — JG5644 — position and weather

sailwx.info

Track history (hours):
 
Tides and Currents Weather Stations Pressure Air Temp Water Temp Dewpoint Dewpoint Depression Visibility Wind Speed Wind Dir Waves Ship Positions

Akebono

Last reported at 2015-Mar-30 10:33 UTC. Time now 2015-Mar-30 14:18 UTC.
Position N 35°27' E 139°41'.

Length 33 m; draft 4.4 m.

Type: Tug. MMSI: 431000233.

Date/timePositionNaut miles runAvg speedWind from/ knotsBaromVisibWave heightAir tempDewpointWater temp
2015-Mar-30 10:33N 35°27' E 139°41'1 0.6
2015-Mar-30 09:34N 35°27' E 139°41'1 1.3
2015-Mar-30 08:33N 35°27' E 139°39'0 0.0
2015-Mar-30 07:33N 35°27' E 139°39'7 6.6
2015-Mar-30 06:33N 35°31' E 139°46'2 2.4
2015-Mar-30 05:33N 35°29' E 139°48'6 5.6
2015-Mar-30 04:33N 35°27' E 139°41'2 2.5
2015-Mar-30 03:33N 35°27' E 139°38'0 0.0
2015-Mar-30 02:33N 35°27' E 139°38'0 0.0
2015-Mar-30 01:33N 35°27' E 139°38'1 0.8
2015-Mar-30 00:33N 35°27' E 139°39'6 6.3
2015-Mar-29 23:33N 35°29' E 139°47'1 1.1
2015-Mar-29 22:33N 35°28' E 139°47'2 2.1
2015-Mar-29 21:33N 35°27' E 139°44'5 4.8
2015-Mar-29 20:33N 35°27' E 139°38'0 0.0
2015-Mar-28 00:09N 35°27' E 139°38'5 9.1
2015-Mar-27 23:33N 35°28' E 139°45'3 3.1
2015-Mar-27 22:33N 35°31' E 139°46'1 0.7
2015-Mar-27 21:33N 35°32' E 139°46'5 5.2
2015-Mar-27 20:33N 35°27' E 139°42'0 0.0
2015-Mar-27 19:33N 35°27' E 139°42'2 1.7
2015-Mar-27 18:33N 35°27' E 139°40'1 0.8
2015-Mar-27 17:33N 35°27' E 139°39'0 0.0
2015-Mar-27 16:33N 35°27' E 139°39'0 0.0
2015-Mar-27 15:33N 35°27' E 139°39'0 0.0
2015-Mar-27 14:33N 35°27' E 139°39'2 1.7
2015-Mar-27 13:33N 35°27' E 139°41'3 2.6
2015-Mar-27 12:33N 35°24' E 139°41'3 2.7
2015-Mar-27 11:33N 35°27' E 139°41'3 3.2
2015-Mar-27 10:33N 35°26' E 139°45'2 2.5
2015-Mar-27 09:33N 35°27' E 139°42'2 1.6
2015-Mar-27 08:34N 35°27' E 139°40'1 1.4
2015-Mar-27 07:33N 35°28' E 139°41'1 1.4
2015-Mar-27 06:33N 35°27' E 139°39'0 0.0
2015-Mar-27 05:33N 35°27' E 139°39'0 0.0
2015-Mar-27 04:33N 35°27' E 139°39'0 0.0
2015-Mar-27 03:33N 35°27' E 139°39'0 0.0
2015-Mar-27 02:33N 35°27' E 139°39'0 0.0
2015-Mar-27 01:33N 35°27' E 139°39'0 0.0
2015-Mar-27 00:33N 35°27' E 139°39'1 1.3
2015-Mar-26 23:33N 35°28' E 139°39'1 1.5
2015-Mar-26 22:34N 35°27' E 139°40'1 1.3
2015-Mar-26 21:33N 35°27' E 139°38'0 0.0
2015-Mar-26 07:10N 35°27' E 139°38'2 1.9
2015-Mar-26 06:21N 35°28' E 139°40'0 0.0
2015-Mar-26 05:31N 35°28' E 139°40'0 0.0
2015-Mar-26 04:30N 35°28' E 139°40'0 0.0
2015-Mar-26 03:27N 35°28' E 139°40'0 0.0
2015-Mar-26 02:34N 35°28' E 139°40'0 0.0
2015-Mar-26 01:32N 35°28' E 139°40'0 0.0
2015-Mar-25 22:33N 35°28' E 139°40'1 1.2
2015-Mar-25 21:34N 35°27' E 139°41'3 2.5
2015-Mar-25 20:33N 35°27' E 139°38'0 0.0
2015-Mar-25 07:09N 35°27' E 139°38'1 1.4
2015-Mar-25 06:33N 35°27' E 139°39'0 0.0
2015-Mar-25 05:33N 35°27' E 139°39'0 0.1
2015-Mar-25 04:33N 35°27' E 139°39'0 0.0
2015-Mar-25 03:33N 35°27' E 139°39'3 3.1
2015-Mar-25 02:33N 35°28' E 139°43'0 0.1
2015-Mar-25 01:33N 35°28' E 139°43'2 1.9
2015-Mar-25 00:33N 35°26' E 139°44'2 1.7
2015-Mar-24 23:33N 35°27' E 139°42'2 2.1
2015-Mar-24 22:34N 35°25' E 139°41'1 0.9
2015-Mar-24 21:34N 35°26' E 139°42'3 3.3
2015-Mar-24 20:34N 35°27' E 139°38'0 0.0
2015-Mar-24 09:06N 35°27' E 139°38'0 0.6
2015-Mar-24 08:34N 35°28' E 139°39'7 6.8
2015-Mar-24 07:34N 35°31' E 139°46'0 0.3
2015-Mar-24 06:34N 35°30' E 139°46'2 1.5
2015-Mar-24 05:34N 35°29' E 139°47'0 0.0
2015-Mar-24 04:32N 35°29' E 139°47'2 1.7
2015-Mar-24 03:33N 35°27' E 139°47'1 0.5
2015-Mar-24 02:33N 35°28' E 139°47'3 3.3
2015-Mar-24 01:33N 35°31' E 139°46'3 3.1
2015-Mar-24 00:33N 35°28' E 139°47'1 1.4
2015-Mar-23 23:33N 35°29' E 139°47'2 2.2
2015-Mar-23 22:33N 35°30' E 139°45'4 3.7
2015-Mar-23 21:33N 35°27' E 139°42'3 3.1
2015-Mar-23 20:33N 35°27' E 139°38'0 0.0
2015-Mar-23 07:14N 35°27' E 139°38'0 0.0
2015-Mar-23 06:33N 35°27' E 139°38'0 0.0
2015-Mar-23 05:33N 35°27' E 139°38'0 0.0
2015-Mar-23 04:33N 35°27' E 139°38'0 0.0
2015-Mar-23 03:33N 35°27' E 139°38'0 0.0
2015-Mar-23 02:33N 35°27' E 139°38'3 3.3
2015-Mar-23 01:33N 35°25' E 139°42'3 3.1
2015-Mar-23 00:33N 35°24' E 139°38'2 1.5
2015-Mar-22 23:34N 35°23' E 139°40'4 3.5
2015-Mar-22 22:34N 35°26' E 139°42'1 1.4
2015-Mar-22 21:34N 35°25' E 139°43'3 3.0
2015-Mar-22 20:34N 35°27' E 139°40'0 0.0
2015-Mar-21 07:17N 35°27' E 139°40'0 0.0
2015-Mar-21 06:33N 35°27' E 139°40'0 0.0
2015-Mar-21 05:34N 35°27' E 139°40'0 0.0
2015-Mar-21 04:34N 35°27' E 139°40'0 0.0
2015-Mar-21 03:34N 35°27' E 139°40'0 0.0
2015-Mar-21 02:34N 35°27' E 139°40'0 0.0
2015-Mar-21 01:34N 35°27' E 139°40'2 1.7
2015-Mar-21 00:34N 35°27' E 139°42'3 2.9
2015-Mar-20 23:33N 35°27' E 139°38'0 0.1
2015-Mar-20 22:33N 35°27' E 139°38'  
Track history (hours):
 
Tides and Currents Weather Stations Pressure Air Temp Water Temp Dewpoint Dewpoint Depression Visibility Wind Speed Wind Dir Waves Ship Positions

Akebono

Last reported at 2015-Mar-30 10:33 UTC. Time now 2015-Mar-30 14:18 UTC.
Position N 35°27' E 139°41'.

Length 33 m; draft 4.4 m.

Type: Tug. MMSI: 431000233.

Date/timePositionNaut miles runAvg speedWind from/ knotsBaromVisibWave heightAir tempDewpointWater temp
2015-Mar-30 10:33N 35°27' E 139°41'1 0.6
2015-Mar-30 09:34N 35°27' E 139°41'1 1.3
2015-Mar-30 08:33N 35°27' E 139°39'0 0.0
2015-Mar-30 07:33N 35°27' E 139°39'7 6.6
2015-Mar-30 06:33N 35°31' E 139°46'2 2.4
2015-Mar-30 05:33N 35°29' E 139°48'6 5.6
2015-Mar-30 04:33N 35°27' E 139°41'2 2.5
2015-Mar-30 03:33N 35°27' E 139°38'0 0.0
2015-Mar-30 02:33N 35°27' E 139°38'0 0.0
2015-Mar-30 01:33N 35°27' E 139°38'1 0.8
2015-Mar-30 00:33N 35°27' E 139°39'6 6.3
2015-Mar-29 23:33N 35°29' E 139°47'1 1.1
2015-Mar-29 22:33N 35°28' E 139°47'2 2.1
2015-Mar-29 21:33N 35°27' E 139°44'5 4.8
2015-Mar-29 20:33N 35°27' E 139°38'0 0.0
2015-Mar-28 00:09N 35°27' E 139°38'5 9.1
2015-Mar-27 23:33N 35°28' E 139°45'3 3.1
2015-Mar-27 22:33N 35°31' E 139°46'1 0.7
2015-Mar-27 21:33N 35°32' E 139°46'5 5.2
2015-Mar-27 20:33N 35°27' E 139°42'0 0.0
2015-Mar-27 19:33N 35°27' E 139°42'2 1.7
2015-Mar-27 18:33N 35°27' E 139°40'1 0.8
2015-Mar-27 17:33N 35°27' E 139°39'0 0.0
2015-Mar-27 16:33N 35°27' E 139°39'0 0.0
2015-Mar-27 15:33N 35°27' E 139°39'0 0.0
2015-Mar-27 14:33N 35°27' E 139°39'2 1.7
2015-Mar-27 13:33N 35°27' E 139°41'3 2.6
2015-Mar-27 12:33N 35°24' E 139°41'3 2.7
2015-Mar-27 11:33N 35°27' E 139°41'3 3.2
2015-Mar-27 10:33N 35°26' E 139°45'2 2.5
2015-Mar-27 09:33N 35°27' E 139°42'2 1.6
2015-Mar-27 08:34N 35°27' E 139°40'1 1.4
2015-Mar-27 07:33N 35°28' E 139°41'1 1.4
2015-Mar-27 06:33N 35°27' E 139°39'0 0.0
2015-Mar-27 05:33N 35°27' E 139°39'0 0.0
2015-Mar-27 04:33N 35°27' E 139°39'0 0.0
2015-Mar-27 03:33N 35°27' E 139°39'0 0.0
2015-Mar-27 02:33N 35°27' E 139°39'0 0.0
2015-Mar-27 01:33N 35°27' E 139°39'0 0.0
2015-Mar-27 00:33N 35°27' E 139°39'1 1.3
2015-Mar-26 23:33N 35°28' E 139°39'1 1.5
2015-Mar-26 22:34N 35°27' E 139°40'1 1.3
2015-Mar-26 21:33N 35°27' E 139°38'0 0.0
2015-Mar-26 07:10N 35°27' E 139°38'2 1.9
2015-Mar-26 06:21N 35°28' E 139°40'0 0.0
2015-Mar-26 05:31N 35°28' E 139°40'0 0.0
2015-Mar-26 04:30N 35°28' E 139°40'0 0.0
2015-Mar-26 03:27N 35°28' E 139°40'0 0.0
2015-Mar-26 02:34N 35°28' E 139°40'0 0.0
2015-Mar-26 01:32N 35°28' E 139°40'0 0.0
2015-Mar-25 22:33N 35°28' E 139°40'1 1.2
2015-Mar-25 21:34N 35°27' E 139°41'3 2.5
2015-Mar-25 20:33N 35°27' E 139°38'0 0.0
2015-Mar-25 07:09N 35°27' E 139°38'1 1.4
2015-Mar-25 06:33N 35°27' E 139°39'0 0.0
2015-Mar-25 05:33N 35°27' E 139°39'0 0.1
2015-Mar-25 04:33N 35°27' E 139°39'0 0.0
2015-Mar-25 03:33N 35°27' E 139°39'3 3.1
2015-Mar-25 02:33N 35°28' E 139°43'0 0.1
2015-Mar-25 01:33N 35°28' E 139°43'2 1.9
2015-Mar-25 00:33N 35°26' E 139°44'2 1.7
2015-Mar-24 23:33N 35°27' E 139°42'2 2.1
2015-Mar-24 22:34N 35°25' E 139°41'1 0.9
2015-Mar-24 21:34N 35°26' E 139°42'3 3.3
2015-Mar-24 20:34N 35°27' E 139°38'0 0.0
2015-Mar-24 09:06N 35°27' E 139°38'0 0.6
2015-Mar-24 08:34N 35°28' E 139°39'7 6.8
2015-Mar-24 07:34N 35°31' E 139°46'0 0.3
2015-Mar-24 06:34N 35°30' E 139°46'2 1.5
2015-Mar-24 05:34N 35°29' E 139°47'0 0.0
2015-Mar-24 04:32N 35°29' E 139°47'2 1.7
2015-Mar-24 03:33N 35°27' E 139°47'1 0.5
2015-Mar-24 02:33N 35°28' E 139°47'3 3.3
2015-Mar-24 01:33N 35°31' E 139°46'3 3.1
2015-Mar-24 00:33N 35°28' E 139°47'1 1.4
2015-Mar-23 23:33N 35°29' E 139°47'2 2.2
2015-Mar-23 22:33N 35°30' E 139°45'4 3.7
2015-Mar-23 21:33N 35°27' E 139°42'3 3.1
2015-Mar-23 20:33N 35°27' E 139°38'0 0.0
2015-Mar-23 07:14N 35°27' E 139°38'0 0.0
2015-Mar-23 06:33N 35°27' E 139°38'0 0.0
2015-Mar-23 05:33N 35°27' E 139°38'0 0.0
2015-Mar-23 04:33N 35°27' E 139°38'0 0.0
2015-Mar-23 03:33N 35°27' E 139°38'0 0.0
2015-Mar-23 02:33N 35°27' E 139°38'3 3.3
2015-Mar-23 01:33N 35°25' E 139°42'3 3.1
2015-Mar-23 00:33N 35°24' E 139°38'2 1.5
2015-Mar-22 23:34N 35°23' E 139°40'4 3.5
2015-Mar-22 22:34N 35°26' E 139°42'1 1.4
2015-Mar-22 21:34N 35°25' E 139°43'3 3.0
2015-Mar-22 20:34N 35°27' E 139°40'0 0.0
2015-Mar-21 07:17N 35°27' E 139°40'0 0.0
2015-Mar-21 06:33N 35°27' E 139°40'0 0.0
2015-Mar-21 05:34N 35°27' E 139°40'0 0.0
2015-Mar-21 04:34N 35°27' E 139°40'0 0.0
2015-Mar-21 03:34N 35°27' E 139°40'0 0.0
2015-Mar-21 02:34N 35°27' E 139°40'0 0.0
2015-Mar-21 01:34N 35°27' E 139°40'2 1.7
2015-Mar-21 00:34N 35°27' E 139°42'3 2.9
2015-Mar-20 23:33N 35°27' E 139°38'0 0.1
2015-Mar-20 22:33N 35°27' E 139°38'  

Dump ship's entire track history